Time;durP1;ratioP1;P1;durP2;ratioP2;P2;SDS_P1;SDS_P2;PMS_P1;PMS_P2;Temp;Humidity;BMP_temperature;BMP_pressure;BME280_temperature;BME280_humidity;BME280_pressure;Samples;Min_cycle;Max_cycle;Signal;HPM_P1;HPM_P2
2021/09/05 04:01:23;;;;;;;4.50;1.90;;;23.80;71.80;;;;;;6048021;23;89294;31
2021/09/05 04:03:49;;;;;;;7.57;1.80;;;23.80;72.10;;;;;;4885504;28;88514;-60
2021/09/05 04:06:15;;;;;;;4.18;1.70;;;23.80;72.10;;;;;;4884037;28;86557;-62
2021/09/05 04:08:49;;;;;;;3.00;1.35;;;23.70;72.00;;;;;;4903470;28;87073;-59
2021/09/05 04:11:15;;;;;;;3.80;1.60;;;23.70;71.80;;;;;;4885443;28;86983;-58
2021/09/05 04:13:41;;;;;;;3.53;1.45;;;23.70;71.90;;;;;;4895030;28;90001;-60
2021/09/05 04:16:07;;;;;;;4.47;1.45;;;23.70;72.30;;;;;;4896940;28;87935;-59
2021/09/05 04:18:33;;;;;;;3.58;1.77;;;23.70;72.40;;;;;;4902643;28;86873;-61
2021/09/05 04:20:59;;;;;;;6.38;1.75;;;23.70;72.10;;;;;;4898642;28;87211;-58
2021/09/05 04:23:24;;;;;;;6.63;1.70;;;23.70;72.60;;;;;;4900935;28;87398;-61
2021/09/05 04:25:50;;;;;;;4.40;1.50;;;23.70;72.70;;;;;;4899670;28;89762;-61
2021/09/05 04:28:16;;;;;;;2.58;1.23;;;23.70;72.70;;;;;;4900006;28;87050;-55
2021/09/05 04:30:42;;;;;;;3.25;1.42;;;23.70;72.70;;;;;;4903726;28;86230;-61
2021/09/05 04:33:09;;;;;;;3.50;1.40;;;23.70;72.70;;;;;;4902435;28;87740;-58
2021/09/05 04:35:35;;;;;;;3.05;1.42;;;23.70;72.70;;;;;;4900033;28;88807;-60
2021/09/05 04:38:01;;;;;;;3.42;1.38;;;23.70;72.70;;;;;;4902291;28;87557;-60
2021/09/05 04:40:27;;;;;;;3.90;1.50;;;23.70;72.60;;;;;;4908130;28;86930;-59
2021/09/05 04:42:53;;;;;;;5.68;1.42;;;23.80;72.80;;;;;;4905462;28;89203;-57
2021/09/05 04:45:18;;;;;;;4.35;1.40;;;23.80;72.60;;;;;;4902496;28;88580;-57
2021/09/05 04:47:44;;;;;;;4.40;1.13;;;23.80;72.60;;;;;;4902198;28;86865;-60
2021/09/05 04:50:10;;;;;;;2.90;1.30;;;23.80;72.40;;;;;;4904607;28;87278;-58
2021/09/05 04:52:35;;;;;;;3.33;1.45;;;23.80;72.50;;;;;;4905408;28;87196;-60
2021/09/05 04:55:01;;;;;;;3.28;1.40;;;23.80;72.50;;;;;;4906148;28;87089;-58
2021/09/05 04:57:27;;;;;;;4.57;1.35;;;23.80;72.20;;;;;;4905670;28;86944;-57
2021/09/05 04:59:52;;;;;;;2.90;1.40;;;23.80;72.20;;;;;;4898244;28;87044;-62
2021/09/05 05:02:18;;;;;;;4.32;1.63;;;23.70;71.90;;;;;;4916079;28;88333;-60
2021/09/05 05:04:44;;;;;;;3.80;1.50;;;23.70;71.60;;;;;;4917508;28;87977;-63
2021/09/05 05:07:10;;;;;;;4.05;1.20;;;23.70;71.90;;;;;;4927457;28;87298;-54
2021/09/05 05:09:35;;;;;;;3.97;1.55;;;23.70;71.70;;;;;;4921071;28;87142;-59
2021/09/05 05:12:01;;;;;;;6.03;1.30;;;23.70;72.50;;;;;;4921580;28;87742;-54
2021/09/05 05:14:27;;;;;;;3.75;1.73;;;23.80;71.70;;;;;;4920385;28;88644;-57
2021/09/05 05:16:52;;;;;;;5.47;1.38;;;23.80;71.70;;;;;;4926154;28;86751;-60
2021/09/05 05:19:18;;;;;;;3.60;1.35;;;23.80;71.90;;;;;;4922128;28;86213;-58
2021/09/05 05:21:44;;;;;;;3.88;1.50;;;23.80;71.90;;;;;;4919374;28;90428;-57
2021/09/05 05:24:09;;;;;;;4.93;1.45;;;23.90;71.90;;;;;;4923194;28;86933;-58
2021/09/05 05:26:35;;;;;;;5.75;1.90;;;23.90;71.90;;;;;;4916346;28;88222;-57
2021/09/05 05:29:01;;;;;;;4.82;1.70;;;23.90;71.80;;;;;;4918513;28;87560;-61
2021/09/05 05:31:26;;;;;;;5.45;1.83;;;23.90;71.70;;;;;;4921757;28;88783;-59
2021/09/05 05:33:52;;;;;;;6.32;1.20;;;23.90;71.80;;;;;;4921996;28;87806;-57
2021/09/05 05:36:18;;;;;;;6.15;1.42;;;23.90;71.70;;;;;;4920099;28;87341;-59
2021/09/05 05:38:44;;;;;;;4.28;1.48;;;23.90;71.60;;;;;;4920331;28;86932;-59
2021/09/05 05:41:10;;;;;;;7.53;1.50;;;24.00;71.60;;;;;;4920138;28;87667;-53
2021/09/05 05:43:36;;;;;;;7.72;1.48;;;24.00;71.50;;;;;;4921277;28;88294;-60
2021/09/05 05:46:02;;;;;;;3.75;1.48;;;24.00;71.40;;;;;;4920390;28;87037;-59
2021/09/05 05:48:28;;;;;;;5.05;1.55;;;24.00;71.40;;;;;;4923107;28;87575;-56
2021/09/05 05:50:54;;;;;;;4.55;1.33;;;24.00;71.50;;;;;;4919950;28;90741;-56
2021/09/05 05:53:21;;;;;;;5.78;1.70;;;24.00;71.40;;;;;;4923151;28;88412;-58
2021/09/05 05:55:46;;;;;;;4.70;1.08;;;24.00;71.40;;;;;;4921482;28;86898;-59
2021/09/05 05:58:12;;;;;;;6.47;1.70;;;24.10;72.00;;;;;;4921786;28;87754;-55
2021/09/05 06:00:39;;;;;;;7.18;1.50;;;24.10;71.30;;;;;;4921415;28;87491;-54
2021/09/05 06:03:07;;;;;;;4.05;1.23;;;24.10;71.20;;;;;;4921901;28;88657;-58
2021/09/05 06:05:33;;;;;;;2.72;1.40;;;24.00;71.10;;;;;;4923304;28;86994;-61
2021/09/05 06:08:01;;;;;;;4.20;1.38;;;24.10;71.20;;;;;;4920190;28;87339;-57
2021/09/05 06:10:27;;;;;;;3.08;1.20;;;24.10;71.20;;;;;;4924630;28;89734;-57
2021/09/05 06:12:53;;;;;;;2.03;1.08;;;24.10;71.10;;;;;;4921470;28;86993;-60
2021/09/05 06:15:18;;;;;;;5.75;1.55;;;24.10;71.10;;;;;;4923949;28;88083;-57
2021/09/05 06:17:44;;;;;;;3.80;1.20;;;24.10;71.10;;;;;;4925308;28;87135;-58
2021/09/05 06:20:10;;;;;;;4.80;1.50;;;24.10;71.00;;;;;;4924123;28;87633;-56
2021/09/05 06:22:36;;;;;;;2.60;1.05;;;24.10;71.10;;;;;;4924831;28;87477;-59
2021/09/05 06:25:02;;;;;;;4.95;1.30;;;24.10;71.00;;;;;;4923484;28;87106;-62
2021/09/05 06:27:28;;;;;;;4.93;1.35;;;24.10;71.00;;;;;;4925229;28;87163;-67
2021/09/05 06:29:54;;;;;;;8.85;1.25;;;24.10;70.90;;;;;;4917004;28;87682;-62
2021/09/05 06:32:20;;;;;;;5.53;1.45;;;24.20;70.90;;;;;;4916941;28;89234;-63
2021/09/05 06:34:45;;;;;;;5.05;1.33;;;24.20;70.90;;;;;;4920306;28;87031;-61
2021/09/05 06:37:11;;;;;;;6.18;1.40;;;24.20;70.90;;;;;;4922861;28;86975;-60
2021/09/05 06:39:37;;;;;;;5.20;1.08;;;24.20;70.90;;;;;;4919157;28;91156;-62
2021/09/05 06:42:03;;;;;;;8.13;1.10;;;24.20;70.90;;;;;;4921694;28;88331;-63
2021/09/05 06:44:28;;;;;;;5.03;1.33;;;24.20;70.90;;;;;;4917103;28;87031;-65
2021/09/05 06:46:54;;;;;;;4.65;1.45;;;24.20;70.90;;;;;;4917899;28;87009;-61
2021/09/05 06:49:20;;;;;;;6.70;1.00;;;24.20;71.20;;;;;;4918608;28;89818;-63
2021/09/05 06:51:46;;;;;;;4.88;1.02;;;24.20;70.90;;;;;;4916625;28;87534;-60
2021/09/05 06:54:11;;;;;;;5.95;1.02;;;24.20;70.90;;;;;;4918896;28;87669;-62
2021/09/05 06:56:37;;;;;;;8.45;1.38;;;24.20;71.00;;;;;;4924443;28;86637;-63
2021/09/05 06:59:03;;;;;;;6.28;1.60;;;24.20;71.00;;;;;;4917315;28;87985;-59
2021/09/05 07:01:29;;;;;;;9.85;1.38;;;24.30;71.00;;;;;;4915588;28;88455;-60
2021/09/05 07:03:54;;;;;;;5.88;1.13;;;24.30;71.10;;;;;;4916616;28;87808;-62
2021/09/05 07:06:20;;;;;;;7.65;1.45;;;24.30;71.00;;;;;;4917928;28;86906;-59
2021/09/05 07:08:46;;;;;;;6.60;1.23;;;24.30;71.30;;;;;;4917837;28;88593;-56
2021/09/05 07:11:11;;;;;;;2.80;1.20;;;24.30;71.30;;;;;;4918908;28;88293;-60
2021/09/05 07:13:37;;;;;;;6.90;1.15;;;24.40;71.10;;;;;;4917002;28;87125;-58
2021/09/05 07:16:03;;;;;;;10.63;1.42;;;24.40;71.30;;;;;;4925685;28;87591;-62
2021/09/05 07:18:29;;;;;;;6.60;1.52;;;24.40;71.00;;;;;;4921971;28;89093;-63
2021/09/05 07:20:54;;;;;;;5.78;1.58;;;24.40;70.50;;;;;;4926207;28;87455;-64
2021/09/05 07:23:20;;;;;;;5.25;1.85;;;24.40;70.50;;;;;;4921598;28;87847;-62
2021/09/05 07:25:46;;;;;;;9.73;1.88;;;24.40;69.40;;;;;;4923781;28;87416;-58
2021/09/05 07:28:11;;;;;;;9.38;1.42;;;24.30;69.80;;;;;;4923504;28;90269;-64
2021/09/05 07:30:37;;;;;;;10.23;1.60;;;24.30;69.00;;;;;;4917522;28;89963;-62
2021/09/05 07:33:03;;;;;;;6.80;1.20;;;24.30;69.20;;;;;;4921393;28;87352;-62
2021/09/05 07:35:28;;;;;;;4.90;1.90;;;24.30;69.10;;;;;;4922970;28;87017;-60
2021/09/05 07:37:54;;;;;;;3.70;1.42;;;24.30;69.70;;;;;;4923563;28;87762;-62
2021/09/05 07:40:21;;;;;;;4.25;1.20;;;24.30;69.70;;;;;;4921018;28;88030;-62
2021/09/05 07:42:47;;;;;;;4.47;1.40;;;24.30;69.60;;;;;;4924570;28;87278;-64
2021/09/05 07:45:13;;;;;;;5.25;1.60;;;24.30;69.50;;;;;;4923363;28;86272;-62
2021/09/05 07:47:39;;;;;;;4.35;1.52;;;24.40;69.60;;;;;;4920632;28;87079;-62
2021/09/05 07:50:07;;;;;;;4.22;1.30;;;24.40;69.60;;;;;;4920697;28;87406;-58
2021/09/05 07:52:32;;;;;;;4.07;1.33;;;24.40;69.60;;;;;;4927496;28;88133;-57
2021/09/05 07:54:58;;;;;;;4.88;1.30;;;24.40;69.60;;;;;;4927868;28;86955;-60
2021/09/05 07:57:24;;;;;;;5.72;1.13;;;24.40;69.60;;;;;;4915272;28;87890;-58
2021/09/05 07:59:49;;;;;;;9.00;1.52;;;24.40;69.90;;;;;;4917323;28;87568;-61
2021/09/05 08:02:15;;;;;;;8.15;1.92;;;24.40;70.00;;;;;;4920234;28;87458;-60
2021/09/05 08:04:41;;;;;;;8.35;2.00;;;24.40;69.50;;;;;;4920405;28;87261;-59
2021/09/05 08:07:06;;;;;;;6.47;1.65;;;24.40;69.50;;;;;;4921191;28;87798;-59
2021/09/05 08:09:32;;;;;;;5.53;1.73;;;24.40;69.40;;;;;;4920908;28;87230;-60
2021/09/05 08:11:57;;;;;;;5.00;1.70;;;24.40;68.90;;;;;;4926336;28;87161;-62
2021/09/05 08:14:23;;;;;;;6.38;1.88;;;24.40;68.70;;;;;;4926224;28;87383;-61
2021/09/05 08:16:49;;;;;;;6.65;2.13;;;24.40;68.80;;;;;;4919364;28;88182;-62
2021/09/05 08:19:15;;;;;;;8.13;2.65;;;24.40;68.60;;;;;;4920247;28;87479;-57
2021/09/05 08:21:40;;;;;;;7.38;2.55;;;24.40;68.40;;;;;;4922173;28;87253;-60
2021/09/05 08:24:06;;;;;;;9.65;3.13;;;24.40;68.20;;;;;;4919771;28;86997;-57
2021/09/05 08:26:32;;;;;;;4.75;2.13;;;24.40;68.00;;;;;;4922568;28;88773;-60
2021/09/05 08:28:58;;;;;;;4.40;2.13;;;24.40;67.50;;;;;;4922832;28;88632;-61
2021/09/05 08:31:24;;;;;;;8.80;2.53;;;24.40;67.80;;;;;;4919552;28;87742;-55
2021/09/05 08:33:50;;;;;;;7.25;2.00;;;24.40;67.30;;;;;;4929412;28;86377;-59
2021/09/05 08:36:16;;;;;;;5.90;1.85;;;24.30;68.40;;;;;;4917588;28;90052;-58
2021/09/05 08:38:42;;;;;;;5.75;2.33;;;24.40;68.40;;;;;;4922942;28;87316;-56
2021/09/05 08:41:07;;;;;;;5.90;2.58;;;24.40;68.50;;;;;;4916886;28;89401;-61
2021/09/05 08:43:35;;;;;;;6.40;2.38;;;24.40;68.00;;;;;;4918756;28;87062;-61
2021/09/05 08:46:01;;;;;;;5.47;2.15;;;24.40;68.20;;;;;;4921363;28;87806;-61
2021/09/05 08:48:26;;;;;;;4.47;2.25;;;24.40;68.00;;;;;;4913979;28;89240;-60
2021/09/05 08:50:54;;;;;;;5.20;2.28;;;24.40;67.70;;;;;;4915071;28;87151;-60
2021/09/05 08:53:20;;;;;;;6.50;2.13;;;24.40;67.60;;;;;;4918012;28;89265;-61
2021/09/05 08:55:47;;;;;;;4.50;2.22;;;24.40;67.70;;;;;;4922189;28;88426;-57
2021/09/05 08:58:13;;;;;;;7.38;2.78;;;24.40;67.40;;;;;;4917542;28;87390;-56
2021/09/05 09:00:40;;;;;;;4.45;2.53;;;24.40;67.00;;;;;;4919800;28;87369;-58
2021/09/05 09:03:06;;;;;;;5.95;2.35;;;24.40;67.40;;;;;;4926650;28;87239;-59
2021/09/05 09:05:42;;;;;;;4.35;2.65;;;24.30;67.30;;;;;;4919680;28;89598;-56
2021/09/05 09:08:09;;;;;;;;;;;24.40;67.10;;;;;;4923447;28;87441;-57
2021/09/05 09:11:01;;;;;;;6.30;2.72;;;24.30;67.40;;;;;;4922463;28;87117;-59
2021/09/05 09:13:28;;;;;;;4.78;2.60;;;24.30;67.20;;;;;;4916028;28;87013;-60
2021/09/05 09:16:11;;;;;;;4.05;2.53;;;24.30;67.50;;;;;;4916666;28;88988;-56
2021/09/05 09:18:41;;;;;;;6.78;2.38;;;24.30;67.90;;;;;;4922697;28;87097;-62
2021/09/05 09:21:09;;;;;;;5.13;2.85;;;24.40;68.00;;;;;;4921285;28;87155;-57
2021/09/05 09:23:37;;;;;;;8.55;2.60;;;24.40;67.80;;;;;;4928873;28;86329;-59
2021/09/05 09:26:15;;;;;;;8.10;2.70;;;24.40;68.30;;;;;;4927705;28;87458;-61
2021/09/05 09:28:46;;;;;;;8.63;2.63;;;24.40;68.30;;;;;;4926285;28;87472;-59
2021/09/05 09:31:15;;;;;;;7.63;2.92;;;24.40;68.10;;;;;;4931364;28;88358;-58
2021/09/05 09:33:45;;;;;;;11.02;2.95;;;24.40;67.90;;;;;;4920259;28;87054;-60
2021/09/05 09:36:17;;;;;;;6.75;2.88;;;24.40;68.40;;;;;;4918874;28;88481;-61
2021/09/05 09:39:00;;;;;;;9.25;2.95;;;24.40;68.50;;;;;;4926535;28;87481;-63
2021/09/05 09:41:29;;;;;;;7.93;2.95;;;24.50;68.20;;;;;;4927659;28;86693;-64
2021/09/05 09:44:03;;;;;;;6.00;2.60;;;24.50;68.30;;;;;;4933713;28;87348;-63
2021/09/05 09:46:31;;;;;;;6.68;2.78;;;24.50;68.30;;;;;;4925411;28;87919;-62
2021/09/05 09:49:02;;;;;;;4.80;2.70;;;24.50;68.40;;;;;;4918379;28;88306;-62
2021/09/05 09:51:28;;;;;;;9.55;2.95;;;24.50;68.40;;;;;;4924780;28;87573;-62
2021/09/05 09:53:55;;;;;;;7.55;3.28;;;24.50;68.30;;;;;;4921861;28;87363;-59
2021/09/05 09:56:21;;;;;;;6.55;2.88;;;24.50;68.20;;;;;;4922147;28;88751;-62
2021/09/05 09:58:49;;;;;;;5.15;3.15;;;24.50;68.20;;;;;;4922086;28;88019;-62
2021/09/05 10:01:17;;;;;;;5.63;2.53;;;24.50;68.20;;;;;;4923892;28;86791;-60
2021/09/05 10:03:46;;;;;;;5.15;2.70;;;24.50;68.30;;;;;;4930332;28;87453;-58
2021/09/05 10:06:13;;;;;;;7.63;3.95;;;24.50;68.30;;;;;;4920275;28;88302;-62
2021/09/05 10:08:43;;;;;;;8.05;2.88;;;24.50;68.20;;;;;;4922334;28;87033;-57
2021/09/05 10:11:11;;;;;;;7.90;4.15;;;24.40;68.20;;;;;;4921035;28;87787;-59
2021/09/05 10:13:39;;;;;;;6.35;3.60;;;24.40;68.10;;;;;;4926264;28;86493;-56
2021/09/05 10:16:05;;;;;;;7.80;3.70;;;24.40;68.20;;;;;;4924244;28;88951;-61
2021/09/05 10:18:35;;;;;;;9.52;4.10;;;24.40;68.20;;;;;;4920922;28;86766;-58
2021/09/05 10:21:01;;;;;;;7.18;3.67;;;24.40;68.40;;;;;;4911959;28;88253;-59
2021/09/05 10:23:32;;;;;;;6.82;3.85;;;24.40;68.30;;;;;;4915243;28;87181;-63
2021/09/05 10:26:08;;;;;;;7.50;3.72;;;24.30;68.20;;;;;;4914989;28;87298;-62
2021/09/05 10:28:39;;;;;;;6.70;4.15;;;24.30;68.10;;;;;;4919480;28;87464;-60
2021/09/05 10:31:07;;;;;;;7.32;3.42;;;24.30;68.10;;;;;;4914695;28;87963;-60
2021/09/05 10:33:42;;;;;;;7.53;3.85;;;24.30;68.10;;;;;;4916135;28;87452;-62
2021/09/05 10:36:10;;;;;;;7.93;4.00;;;24.30;68.00;;;;;;4921358;28;89199;-62
2021/09/05 10:38:43;;;;;;;7.57;4.00;;;24.40;68.10;;;;;;4917396;28;88227;-59
2021/09/05 10:41:21;;;;;;;7.35;3.88;;;24.30;67.90;;;;;;4909437;28;87424;-61
2021/09/05 10:43:54;;;;;;;5.38;3.35;;;24.30;67.90;;;;;;4917751;28;87421;-60
2021/09/05 10:46:22;;;;;;;5.32;3.10;;;24.30;68.20;;;;;;4918924;28;88779;-63
2021/09/05 10:48:56;;;;;;;6.68;3.72;;;24.30;68.10;;;;;;4919588;28;88012;-63
2021/09/05 10:51:27;;;;;;;6.18;4.00;;;24.30;67.60;;;;;;4919580;28;87243;-60
2021/09/05 10:54:02;;;;;;;7.47;3.30;;;24.30;67.90;;;;;;4917328;28;87180;-63
2021/09/05 10:56:34;;;;;;;;;;;24.40;68.10;;;;;;4923653;28;87408;-61
2021/09/05 10:59:02;;;;;;;6.47;3.47;;;24.40;67.50;;;;;;4917732;28;87609;-58
2021/09/05 11:01:38;;;;;;;5.82;3.78;;;24.40;67.50;;;;;;4933482;28;87071;-61
2021/09/05 11:04:16;;;;;;;7.53;3.42;;;24.40;67.50;;;;;;4926115;28;86430;-62
2021/09/05 11:06:56;;;;;;;5.47;3.35;;;24.40;67.40;;;;;;4917338;28;89480;-62
2021/09/05 11:09:24;;;;;;;6.55;3.40;;;24.40;67.30;;;;;;4923106;28;88454;-63
2021/09/05 11:12:03;;;;;;;7.00;3.40;;;24.40;66.80;;;;;;4921541;28;88298;-62
2021/09/05 11:17:19;;;;;;;5.53;3.00;;;24.40;67.60;;;;;;4919709;28;87326;-61
2021/09/05 11:20:05;;;;;;;5.65;3.20;;;24.40;67.70;;;;;;4917307;28;87030;-62
2021/09/05 11:22:47;;;;;;;5.85;3.42;;;24.40;66.50;;;;;;4912025;28;87273;-63
2021/09/05 11:25:13;;;;;;;5.63;3.17;;;24.40;66.70;;;;;;4914558;28;87270;-64
2021/09/05 11:27:59;;;;;;;5.10;2.80;;;24.40;67.80;;;;;;4913519;28;89938;-60
2021/09/05 11:30:28;;;;;;;4.97;2.80;;;24.40;68.10;;;;;;4921176;28;88732;-61
2021/09/05 11:33:08;;;;;;;7.10;2.85;;;24.50;68.60;;;;;;4920977;28;86974;-63
2021/09/05 11:35:42;;;;;;;6.35;2.55;;;24.50;68.50;;;;;;4918850;28;87043;-63
2021/09/05 11:38:09;;;;;;;5.72;2.63;;;24.60;68.50;;;;;;4919349;28;89610;-64
2021/09/05 11:41:01;;;;;;;5.38;2.83;;;24.60;68.80;;;;;;4917135;28;88963;-61
2021/09/05 11:43:37;;;;;;;5.10;2.33;;;24.70;69.00;;;;;;4910530;28;87288;-64
2021/09/05 11:46:15;;;;;;;5.82;2.30;;;24.70;69.10;;;;;;4926548;28;87500;-60
2021/09/05 11:48:55;;;;;;;4.97;2.75;;;24.70;69.20;;;;;;4915876;28;88466;-61
2021/09/05 11:51:21;;;;;;;4.45;2.90;;;24.70;68.80;;;;;;4915052;28;88139;-60
2021/09/05 11:53:57;;;;;;;4.50;2.20;;;24.70;68.80;;;;;;4917378;28;86916;-60
2021/09/05 11:56:22;;;;;;;6.72;3.00;;;24.70;68.80;;;;;;4907709;28;86731;-61
2021/09/05 11:58:48;;;;;;;6.07;2.72;;;24.80;68.70;;;;;;4916259;28;87029;-60
2021/09/05 12:01:14;;;;;;;4.88;2.38;;;24.70;68.80;;;;;;4914079;28;88446;-57
2021/09/05 12:03:39;;;;;;;5.97;2.58;;;24.80;68.80;;;;;;4915829;28;88099;-59
2021/09/05 12:06:09;;;;;;;4.22;2.38;;;24.80;68.90;;;;;;4915756;28;87098;-58
2021/09/05 12:08:37;;;;;;;5.50;2.35;;;24.80;68.80;;;;;;4915271;28;88894;-57
2021/09/05 12:11:05;;;;;;;5.97;2.42;;;24.80;68.90;;;;;;4914905;28;88536;-59
2021/09/05 12:13:57;;;;;;;4.70;2.33;;;24.90;69.00;;;;;;4915890;28;87015;-56
2021/09/05 12:16:28;;;;;;;5.03;2.45;;;24.90;68.90;;;;;;4915400;28;87236;-57
2021/09/05 12:19:05;;;;;;;6.80;2.17;;;24.80;69.00;;;;;;4915445;28;88682;-57
2021/09/05 12:21:36;;;;;;;6.15;2.40;;;24.90;69.00;;;;;;4915380;28;89038;-59
2021/09/05 12:24:03;;;;;;;4.28;2.13;;;24.90;69.10;;;;;;4915866;28;87448;-61
2021/09/05 12:26:37;;;;;;;6.50;2.20;;;24.90;69.00;;;;;;4914988;28;86952;-58
2021/09/05 12:29:03;;;;;;;5.60;2.17;;;24.90;69.00;;;;;;4915053;28;88574;-62
2021/09/05 12:31:43;;;;;;;4.50;2.35;;;24.90;69.00;;;;;;4914422;28;90330;-58
2021/09/05 12:34:10;;;;;;;4.43;2.20;;;24.90;69.10;;;;;;4915727;28;86656;-57
2021/09/05 12:36:36;;;;;;;4.30;1.88;;;24.90;69.10;;;;;;4915418;28;87269;-61
2021/09/05 12:39:02;;;;;;;5.07;2.30;;;25.00;69.00;;;;;;4918645;28;88557;-57
2021/09/05 12:41:29;;;;;;;7.13;2.58;;;24.90;69.20;;;;;;4918165;28;88748;-57
2021/09/05 12:44:06;;;;;;;6.22;2.40;;;25.00;69.00;;;;;;4927274;28;86998;-57
2021/09/05 12:46:40;;;;;;;4.18;2.13;;;25.00;69.20;;;;;;4926907;28;86653;-62
2021/09/05 12:49:13;;;;;;;6.65;2.05;;;25.00;69.20;;;;;;4923975;28;88739;-61
2021/09/05 12:51:50;;;;;;;3.83;2.08;;;25.00;69.30;;;;;;4933379;28;88309;-61
2021/09/05 12:54:18;;;;;;;5.53;2.30;;;25.00;69.20;;;;;;4935542;28;88063;-60
2021/09/05 12:56:43;;;;;;;6.13;2.38;;;25.10;69.00;;;;;;4919719;28;87571;-57
2021/09/05 12:59:09;;;;;;;5.03;2.25;;;25.10;69.90;;;;;;4935507;28;87769;-60
2021/09/05 13:01:35;;;;;;;4.97;2.15;;;25.10;69.40;;;;;;4925500;28;87075;-57
2021/09/05 13:04:02;;;;;;;4.25;2.30;;;25.10;69.20;;;;;;4935556;28;87430;-58
2021/09/05 13:06:29;;;;;;;4.93;2.33;;;25.10;69.40;;;;;;4933683;28;87092;-57
2021/09/05 13:08:55;;;;;;;4.60;2.33;;;25.10;69.20;;;;;;4934895;28;88733;-59
2021/09/05 13:11:23;;;;;;;4.03;1.92;;;25.10;69.40;;;;;;4922310;28;87452;-58
2021/09/05 13:13:50;;;;;;;4.45;1.95;;;25.10;69.10;;;;;;4926061;28;87080;-57
2021/09/05 13:16:16;;;;;;;7.68;2.33;;;25.10;69.30;;;;;;4932093;28;87079;-63
2021/09/05 13:18:43;;;;;;;4.32;2.00;;;25.10;69.30;;;;;;4918248;28;89798;-60
2021/09/05 13:21:13;;;;;;;5.10;1.83;;;25.10;69.40;;;;;;4917724;28;89551;-56
2021/09/05 13:23:43;;;;;;;3.58;1.75;;;25.20;69.30;;;;;;4918005;28;86860;-59
2021/09/05 13:26:10;;;;;;;3.58;2.05;;;25.20;69.60;;;;;;4917986;28;87075;-60
2021/09/05 13:28:36;;;;;;;4.70;1.80;;;25.20;69.40;;;;;;4917542;28;89017;-57
2021/09/05 13:31:02;;;;;;;3.63;1.75;;;25.20;69.30;;;;;;4917087;28;87575;-63
2021/09/05 13:33:27;;;;;;;4.63;1.98;;;25.20;69.50;;;;;;4917942;28;87184;-53
2021/09/05 13:35:53;;;;;;;3.28;1.73;;;25.20;69.30;;;;;;4918089;28;86348;-58
2021/09/05 13:38:20;;;;;;;3.60;1.83;;;25.20;69.30;;;;;;4917685;28;87230;-60
2021/09/05 13:40:47;;;;;;;4.50;2.28;;;25.20;69.20;;;;;;4917194;28;88256;-58
2021/09/05 13:43:13;;;;;;;2.30;1.35;;;25.30;69.40;;;;;;4917263;28;87806;-58
2021/09/05 13:45:39;;;;;;;4.13;1.98;;;25.20;69.50;;;;;;4917246;28;87070;-59
2021/09/05 13:48:05;;;;;;;3.63;2.25;;;25.30;69.30;;;;;;4916992;28;88074;-60
2021/09/05 13:50:30;;;;;;;3.72;1.85;;;25.30;69.40;;;;;;4916622;28;88969;-61
2021/09/05 13:52:56;;;;;;;3.20;2.00;;;25.30;69.40;;;;;;4917375;28;87567;-58
2021/09/05 13:55:22;;;;;;;4.68;1.80;;;25.30;69.40;;;;;;4917348;28;87052;-57
2021/09/05 13:57:47;;;;;;;3.38;1.95;;;25.30;69.40;;;;;;4917430;28;88385;-59
2021/09/05 14:00:14;;;;;;;3.00;1.42;;;25.30;69.40;;;;;;4916913;28;87144;-56
2021/09/05 14:02:40;;;;;;;3.20;1.77;;;25.30;69.40;;;;;;4914157;28;86984;-58
2021/09/05 14:05:06;;;;;;;3.75;1.48;;;25.30;69.40;;;;;;4917434;28;87031;-56
2021/09/05 14:07:32;;;;;;;2.97;1.48;;;25.30;69.40;;;;;;4916766;28;89981;-59
2021/09/05 14:09:58;;;;;;;3.25;1.77;;;25.30;69.30;;;;;;4917575;28;88799;-60
2021/09/05 14:12:23;;;;;;;3.55;1.80;;;25.30;69.40;;;;;;4917403;28;87056;-60
2021/09/05 14:14:49;;;;;;;3.58;1.67;;;25.30;69.40;;;;;;4916924;28;86730;-62
2021/09/05 14:17:15;;;;;;;3.17;1.50;;;25.40;69.40;;;;;;4916811;28;88475;-58
2021/09/05 14:19:40;;;;;;;2.95;1.42;;;25.40;69.40;;;;;;4917542;28;87306;-58
2021/09/05 14:22:07;;;;;;;3.38;2.17;;;25.40;69.40;;;;;;4923100;28;88642;-58
2021/09/05 14:24:33;;;;;;;3.15;2.13;;;25.40;69.40;;;;;;4923143;28;86282;-62
2021/09/05 14:27:04;;;;;;;2.67;1.73;;;25.40;69.40;;;;;;4922358;28;90119;-61
2021/09/05 14:29:35;;;;;;;3.78;1.52;;;25.40;69.40;;;;;;4918093;28;88619;-61
2021/09/05 14:32:07;;;;;;;3.40;1.70;;;25.40;69.40;;;;;;4926427;28;88288;-60
2021/09/05 14:55:47;;;;;;;3.30;1.60;;;25.50;69.50;;;;;;4922748;28;87038;-56
2021/09/05 14:58:13;;;;;;;3.13;1.73;;;25.50;69.50;;;;;;4926299;28;89150;-59
2021/09/05 15:00:39;;;;;;;3.53;1.70;;;25.50;69.60;;;;;;4917960;28;87650;-62
2021/09/05 15:03:20;;;;;;;2.78;1.17;;;25.50;69.50;;;;;;4923946;28;87080;-60
2021/09/05 15:11:22;;;;;;;3.35;1.60;;;25.50;69.50;;;;;;4922273;28;87039;-61
2021/09/05 15:13:48;;;;;;;3.00;1.48;;;25.50;69.50;;;;;;4924659;28;87418;-56
2021/09/05 15:16:13;;;;;;;3.00;1.60;;;25.50;69.50;;;;;;4926364;28;86158;-58
2021/09/05 15:18:39;;;;;;;2.90;1.60;;;25.50;69.50;;;;;;4921868;28;87109;-60
2021/09/05 15:21:08;;;;;;;3.05;1.45;;;25.50;69.60;;;;;;4921838;28;89247;-61
2021/09/05 15:23:41;;;;;;;2.90;1.17;;;25.50;69.60;;;;;;4922481;28;87953;-59
2021/09/05 15:26:09;;;;;;;2.53;1.20;;;25.50;69.70;;;;;;4924084;28;87499;-58
2021/09/05 15:28:40;;;;;;;3.55;1.45;;;25.50;69.50;;;;;;4928039;28;87528;-57
2021/09/05 15:31:17;;;;;;;2.95;1.20;;;25.60;69.70;;;;;;4920838;28;88280;-57
2021/09/05 15:39:55;;;;;;;2.10;1.20;;;25.60;69.70;;;;;;4917242;28;88174;-62
2021/09/05 15:55:51;;;;;;;2.78;1.40;;;25.60;69.70;;;;;;4931860;28;87390;-57
2021/09/05 15:58:22;;;;;;;1.98;1.20;;;25.60;69.70;;;;;;4936553;28;88090;-58
2021/09/05 16:00:59;;;;;;;2.88;1.38;;;25.70;69.70;;;;;;4931858;28;87181;-62
2021/09/05 16:03:32;;;;;;;2.17;0.98;;;25.70;69.80;;;;;;4920913;28;88451;-60
2021/09/05 16:06:17;;;;;;;2.50;1.20;;;25.70;69.80;;;;;;4918197;28;87210;-61
2021/09/05 16:16:58;;;;;;;8.35;1.75;;;25.70;71.30;;;;;;4920271;28;88011;-61
2021/09/05 16:19:24;;;;;;;5.78;1.80;;;25.70;71.90;;;;;;4923776;28;87215;-61
2021/09/05 16:21:49;;;;;;;8.80;1.88;;;25.80;71.70;;;;;;4918542;28;87234;-62
2021/09/05 16:24:15;;;;;;;14.10;1.90;;;25.80;71.50;;;;;;4931691;28;87848;-62
2021/09/05 16:26:41;;;;;;;18.35;2.22;;;25.80;71.50;;;;;;4927138;28;87091;-63
2021/09/05 16:29:08;;;;;;;11.27;1.73;;;25.80;71.30;;;;;;4922832;28;87153;-62
2021/09/05 16:31:40;;;;;;;6.45;2.05;;;25.80;71.30;;;;;;4920319;28;89754;-62
2021/09/05 16:34:11;;;;;;;8.80;2.30;;;25.80;69.80;;;;;;4923656;28;88331;-61
2021/09/05 16:42:05;;;;;;;5.47;2.40;;;25.60;67.50;;;;;;4921764;28;88398;-62
2021/09/05 16:44:31;;;;;;;5.70;2.88;;;25.50;68.10;;;;;;4919977;28;87998;-57
2021/09/05 16:46:58;;;;;;;6.30;2.75;;;25.50;68.00;;;;;;4924250;28;87156;-61
2021/09/05 16:49:24;;;;;;;7.18;2.72;;;25.50;66.50;;;;;;4927760;28;87362;-57
2021/09/05 16:51:50;;;;;;;7.47;2.60;;;25.40;65.50;;;;;;4931838;28;87325;-56
2021/09/05 16:54:15;;;;;;;6.30;2.55;;;25.40;66.20;;;;;;4925201;28;88008;-57
2021/09/05 16:56:41;;;;;;;5.82;2.67;;;25.40;65.40;;;;;;4931220;28;87159;-58
2021/09/05 16:59:07;;;;;;;5.43;2.78;;;25.40;66.30;;;;;;4922426;28;86444;-59
2021/09/05 17:01:32;;;;;;;11.13;2.95;;;25.40;66.40;;;;;;4920664;28;90267;-59
2021/09/05 17:03:58;;;;;;;6.40;3.08;;;25.40;65.50;;;;;;4924062;28;88357;-55
2021/09/05 17:06:24;;;;;;;6.57;2.55;;;25.40;65.70;;;;;;4928679;28;87636;-60
2021/09/05 17:08:50;;;;;;;4.25;2.33;;;25.30;65.70;;;;;;4928190;28;86701;-56
2021/09/05 17:11:15;;;;;;;6.30;2.45;;;25.30;65.70;;;;;;4928885;28;88635;-55
2021/09/05 17:13:41;;;;;;;6.13;2.78;;;25.30;65.50;;;;;;4923593;28;88710;-55
2021/09/05 17:16:07;;;;;;;6.28;2.53;;;25.30;65.30;;;;;;4928670;28;86776;-55
2021/09/05 17:18:33;;;;;;;4.43;2.65;;;25.30;65.80;;;;;;4921992;28;87050;-57
2021/09/05 17:20:59;;;;;;;6.60;2.95;;;25.30;65.50;;;;;;4921982;28;87845;-59
2021/09/05 17:23:25;;;;;;;6.30;2.50;;;25.30;65.60;;;;;;4925523;28;87333;-62
2021/09/05 17:25:51;;;;;;;6.93;2.95;;;25.30;64.60;;;;;;4928825;28;87079;-60
2021/09/05 17:28:17;;;;;;;5.65;2.78;;;25.30;65.00;;;;;;4927623;28;87071;-55
2021/09/05 17:30:42;;;;;;;7.05;2.72;;;25.30;65.20;;;;;;4928595;28;88450;-55
2021/09/05 17:33:08;;;;;;;6.43;2.63;;;25.20;66.20;;;;;;4927646;28;87627;-56
2021/09/05 17:35:34;;;;;;;5.68;2.88;;;25.20;65.10;;;;;;4929477;28;87038;-59
2021/09/05 17:38:00;;;;;;;6.00;2.95;;;25.20;65.40;;;;;;4919837;28;87145;-63
2021/09/05 17:40:27;;;;;;;5.53;3.17;;;25.20;65.40;;;;;;4923798;28;88765;-57
2021/09/05 17:42:53;;;;;;;5.07;3.00;;;25.20;65.30;;;;;;4923929;28;87016;-61
2021/09/05 17:45:19;;;;;;;5.90;3.10;;;25.20;65.40;;;;;;4916898;28;87006;-57
2021/09/05 17:47:44;;;;;;;6.50;2.78;;;25.20;65.70;;;;;;4919962;28;86963;-60
2021/09/05 17:50:10;;;;;;;4.43;2.85;;;25.10;66.60;;;;;;4915339;28;89012;-62
2021/09/05 17:52:36;;;;;;;9.15;2.58;;;25.30;67.10;;;;;;4919167;28;87112;-62
2021/09/05 17:55:02;;;;;;;4.18;2.25;;;25.30;67.30;;;;;;4917622;28;87939;-63